createdAt,value
2022-09-28T00:00:28.854Z,99418.38
2022-09-28T00:01:05.676Z,99426.31
2022-09-28T00:01:37.149Z,99417.78
2022-09-28T00:02:08.676Z,99414.56
2022-09-28T00:02:40.696Z,99416.41
2022-09-28T00:03:12.587Z,99414.81
2022-09-28T00:03:44.940Z,99419.88
2022-09-28T00:04:16.523Z,99415.63
2022-09-28T00:04:47.972Z,99416.06
2022-09-28T00:05:19.434Z,99415.28
2022-09-28T00:05:50.831Z,99417.59
2022-09-28T00:06:23.404Z,99423.22
2022-09-28T00:06:54.836Z,99414.94
2022-09-28T00:07:26.549Z,99420.00
2022-09-28T00:07:58.174Z,99415.97
2022-09-28T00:08:29.658Z,99410.78
2022-09-28T00:09:01.876Z,99423.34
2022-09-28T00:09:33.696Z,99418.03
2022-09-28T00:10:05.317Z,99414.81
2022-09-28T00:10:36.812Z,99417.47
2022-09-28T00:11:11.175Z,99424.28
2022-09-28T00:11:43.774Z,99418.38
2022-09-28T00:12:15.256Z,99418.59
2022-09-28T00:12:46.677Z,99423.44
2022-09-28T00:13:18.436Z,99419.97
2022-09-28T00:13:51.626Z,99417.94
2022-09-28T00:14:23.558Z,99417.31
2022-09-28T00:14:55.688Z,99418.50
2022-09-28T00:15:27.488Z,99425.06
2022-09-28T00:16:02.409Z,99416.09
2022-09-28T00:16:35.174Z,99418.50
2022-09-28T00:17:07.172Z,99416.66
2022-09-28T00:17:38.605Z,99416.44
2022-09-28T00:18:10.027Z,99416.91
2022-09-28T00:18:41.668Z,99416.31
2022-09-28T00:19:13.578Z,99409.53
2022-09-28T00:19:46.093Z,99417.47
2022-09-28T00:20:18.284Z,99416.66
2022-09-28T00:20:59.076Z,99403.19
2022-09-28T00:21:34.511Z,99412.75
2022-09-28T00:22:06.443Z,99411.13
2022-09-28T00:22:37.913Z,99413.56
2022-09-28T00:23:09.580Z,99412.03
2022-09-28T00:24:00.147Z,99416.44
2022-09-28T00:24:31.805Z,99406.19
2022-09-28T00:25:03.499Z,99411.13
2022-09-28T00:25:35.113Z,99412.03
2022-09-28T00:26:06.657Z,99413.44
2022-09-28T00:26:41.133Z,99409.53
2022-09-28T00:27:13.093Z,99406.53
2022-09-28T00:27:49.396Z,99407.09
2022-09-28T00:28:20.893Z,99404.09
2022-09-28T00:28:52.881Z,99405.50
2022-09-28T00:29:26.550Z,99408.38
2022-09-28T00:29:58.193Z,99410.53
2022-09-28T00:30:29.647Z,99407.66
2022-09-28T00:31:01.181Z,99403.63
2022-09-28T00:31:34.085Z,99401.31
2022-09-28T00:32:09.067Z,99403.16
2022-09-28T00:32:40.491Z,99412.03
2022-09-28T00:33:14.205Z,99405.25
2022-09-28T00:33:45.660Z,99408.00
2022-09-28T00:34:17.198Z,99403.88
2022-09-28T00:34:49.281Z,99408.81
2022-09-28T00:35:21.013Z,99410.88
2022-09-28T00:35:56.172Z,99407.66
2022-09-28T00:36:28.273Z,99408.13
2022-09-28T00:37:00.012Z,99406.72
2022-09-28T00:37:31.747Z,99407.19
2022-09-28T00:38:03.877Z,99404.31
2022-09-28T00:38:35.302Z,99405.81
2022-09-28T00:39:09.688Z,99408.00
2022-09-28T00:39:41.427Z,99411.69
2022-09-28T00:40:13.168Z,99409.28
2022-09-28T00:40:44.719Z,99408.81
2022-09-28T00:41:17.388Z,99406.72
2022-09-28T00:41:48.965Z,99409.63
2022-09-28T00:42:24.136Z,99407.19
2022-09-28T00:42:55.592Z,99404.31
2022-09-28T00:43:28.058Z,99405.59
2022-09-28T00:44:17.942Z,99405.59
2022-09-28T00:44:50.328Z,99409.28
2022-09-28T00:45:22.707Z,99408.47
2022-09-28T00:45:58.987Z,99410.88
2022-09-28T00:46:33.691Z,99407.66
2022-09-28T00:47:07.808Z,99403.75
2022-09-28T00:47:51.992Z,99401.31
2022-09-28T00:48:23.981Z,99404.44
2022-09-28T00:48:57.462Z,99406.50
2022-09-28T00:49:32.327Z,99398.91
2022-09-28T00:50:15.428Z,99399.16
2022-09-28T00:50:46.869Z,99402.25
2022-09-28T00:51:19.273Z,99394.09
2022-09-28T00:51:50.711Z,99397.31
2022-09-28T00:52:27.229Z,99395.72
2022-09-28T00:53:02.437Z,99404.09
2022-09-28T00:53:34.939Z,99406.31
2022-09-28T00:54:06.421Z,99402.63
2022-09-28T00:54:37.925Z,99398.34
2022-09-28T00:55:11.636Z,99406.06
2022-09-28T00:55:45.764Z,99398.47
2022-09-28T00:56:19.148Z,99399.72
2022-09-28T00:56:50.591Z,99405.25
2022-09-28T00:57:22.674Z,99396.50
2022-09-28T00:57:55.976Z,99396.28
2022-09-28T00:58:28.757Z,99396.72
2022-09-28T00:59:00.236Z,99396.84
2022-09-28T00:59:32.559Z,99393.16
2022-09-28T01:00:04.298Z,99405.59
2022-09-28T01:00:35.848Z,99396.72
2022-09-28T01:01:09.931Z,99395.34
2022-09-28T01:01:41.529Z,99402.72
2022-09-28T01:02:13.096Z,99394.19
2022-09-28T01:02:44.645Z,99397.66
2022-09-28T01:03:16.427Z,99393.41
2022-09-28T01:03:48.868Z,99396.50
2022-09-28T01:04:20.324Z,99398.47
2022-09-28T01:04:52.181Z,99398.00
2022-09-28T01:05:24.223Z,99400.41
2022-09-28T01:05:56.514Z,99392.09
2022-09-28T01:06:29.064Z,99398.91
2022-09-28T01:07:00.516Z,99394.88
2022-09-28T01:07:32.136Z,99401.09
2022-09-28T01:08:03.568Z,99399.94
2022-09-28T01:08:35.268Z,99395.91
2022-09-28T01:09:07.891Z,99396.72
2022-09-28T01:09:39.635Z,99395.44
2022-09-28T01:10:11.892Z,99398.22
2022-09-28T01:10:43.764Z,99397.06
2022-09-28T01:11:15.199Z,99392.69
2022-09-28T01:11:46.613Z,99401.44
2022-09-28T01:12:18.119Z,99394.78
2022-09-28T01:12:50.539Z,99392.94
2022-09-28T01:13:22.083Z,99394.09
2022-09-28T01:13:54.623Z,99393.63
2022-09-28T01:14:26.141Z,99392.69
2022-09-28T01:14:57.621Z,99392.56
2022-09-28T01:15:29.303Z,99389.00
2022-09-28T01:16:21.490Z,99394.31
2022-09-28T01:16:54.249Z,99391.28
2022-09-28T01:17:37.040Z,99393.28
2022-09-28T01:18:11.990Z,99396.59
2022-09-28T01:23:21.429Z,99394.88
2022-09-28T01:24:01.543Z,99394.66
2022-09-28T01:24:59.061Z,99397.06
2022-09-28T01:25:45.963Z,99401.22
2022-09-28T01:26:21.589Z,99396.38
2022-09-28T01:26:56.386Z,99396.84
2022-09-28T01:27:57.170Z,99395.25
2022-09-28T01:28:28.712Z,99395.72
2022-09-28T01:29:10.589Z,99393.63
2022-09-28T01:29:57.507Z,99396.59
2022-09-28T01:30:29.112Z,99390.28
2022-09-28T01:31:09.749Z,99397.19
2022-09-28T01:31:41.895Z,99395.00
2022-09-28T01:32:28.328Z,99390.63
2022-09-28T01:33:06.854Z,99394.41
2022-09-28T01:33:58.708Z,99392.22
2022-09-28T01:34:41.391Z,99391.91
2022-09-28T01:35:31.375Z,99391.66
2022-09-28T01:36:04.980Z,99393.16
2022-09-28T01:36:38.192Z,99395.13
2022-09-28T01:37:10.004Z,99391.44
2022-09-28T01:37:44.696Z,99391.09
2022-09-28T01:38:31.920Z,99400.06
2022-09-28T01:39:08.041Z,99393.97
2022-09-28T01:39:40.400Z,99403.28
2022-09-28T01:40:12.118Z,99395.81
2022-09-28T01:40:43.836Z,99393.03
2022-09-28T01:41:17.781Z,99392.59
2022-09-28T01:41:51.475Z,99391.09
2022-09-28T01:42:25.197Z,99392.94
2022-09-28T01:43:01.313Z,99391.56
2022-09-28T01:43:33.953Z,99398.34
2022-09-28T01:44:06.055Z,99392.22
2022-09-28T01:44:39.900Z,99396.38
2022-09-28T01:45:16.095Z,99393.88
2022-09-28T01:46:06.113Z,99385.78
2022-09-28T01:46:41.374Z,99388.91
2022-09-28T01:47:13.173Z,99389.94
2022-09-28T01:47:45.004Z,99391.22
2022-09-28T01:48:17.828Z,99391.09
2022-09-28T01:48:56.646Z,99396.28
2022-09-28T01:49:30.973Z,99393.63
2022-09-28T01:50:07.313Z,99396.16
2022-09-28T01:50:39.757Z,99397.63
2022-09-28T01:51:12.673Z,99387.63
2022-09-28T01:52:01.160Z,99389.22
2022-09-28T01:52:36.319Z,99399.59
2022-09-28T01:53:12.031Z,99393.84
2022-09-28T01:53:45.780Z,99391.19
2022-09-28T01:54:23.585Z,99392.22
2022-09-28T01:54:57.161Z,99389.34
2022-09-28T01:55:30.608Z,99390.63
2022-09-28T01:56:03.898Z,99382.44
2022-09-28T01:56:39.369Z,99391.78
2022-09-28T01:57:15.525Z,99384.53
2022-09-28T01:57:48.983Z,99385.31
2022-09-28T01:58:23.242Z,99382.91
2022-09-28T01:58:56.828Z,99387.88
2022-09-28T01:59:29.221Z,99389.00
2022-09-28T02:00:05.556Z,99394.88
2022-09-28T02:00:48.163Z,99382.09
2022-09-28T02:01:22.562Z,99389.47
2022-09-28T02:01:58.759Z,99383.25
2022-09-28T02:02:34.299Z,99387.41
2022-09-28T02:03:10.941Z,99390.03
2022-09-28T02:03:56.720Z,99383.72
2022-09-28T02:04:36.193Z,99381.75
2022-09-28T02:05:31.374Z,99390.38
2022-09-28T02:06:13.554Z,99382.34
2022-09-28T02:06:47.709Z,99387.28
2022-09-28T02:07:23.779Z,99386.72
2022-09-28T02:07:57.413Z,99391.31
2022-09-28T02:08:30.026Z,99389.69
2022-09-28T02:09:08.131Z,99388.88
2022-09-28T02:09:47.133Z,99381.16
2022-09-28T02:10:19.675Z,99384.38
2022-09-28T02:10:56.263Z,99389.91
2022-09-28T02:11:27.681Z,99381.97
2022-09-28T02:12:00.147Z,99381.63
2022-09-28T02:12:35.411Z,99385.06
2022-09-28T02:13:10.494Z,99384.38
2022-09-28T02:13:44.630Z,99379.09
2022-09-28T02:14:17.213Z,99383.03
2022-09-28T02:14:52.162Z,99383.50
2022-09-28T02:15:30.581Z,99385.34
2022-09-28T02:16:07.392Z,99378.50
2022-09-28T02:16:42.664Z,99377.81
2022-09-28T02:17:16.161Z,99380.94
2022-09-28T02:17:50.959Z,99381.16
2022-09-28T02:18:22.389Z,99381.53
2022-09-28T02:18:53.933Z,99381.16
2022-09-28T02:19:25.963Z,99381.50
2022-09-28T02:19:57.399Z,99383.00
2022-09-28T02:20:29.583Z,99385.53
2022-09-28T02:21:04.262Z,99381.28
2022-09-28T02:21:40.962Z,99375.41
2022-09-28T02:22:23.213Z,99384.50
2022-09-28T02:22:56.829Z,99378.84
2022-09-28T02:23:29.321Z,99381.38
2022-09-28T02:24:03.213Z,99383.47
2022-09-28T02:24:35.585Z,99386.69
2022-09-28T02:25:11.447Z,99384.63
2022-09-28T02:25:45.903Z,99387.59
2022-09-28T02:26:17.437Z,99386.44
2022-09-28T02:26:49.192Z,99383.19
2022-09-28T02:27:29.678Z,99384.00
2022-09-28T02:28:02.526Z,99387.84
2022-09-28T02:28:33.963Z,99379.91
2022-09-28T02:29:05.815Z,99388.06
2022-09-28T02:29:37.223Z,99390.94
2022-09-28T02:30:09.234Z,99384.38
2022-09-28T02:30:41.522Z,99386.88
2022-09-28T02:31:13.202Z,99385.16
2022-09-28T02:31:44.666Z,99387.34
2022-09-28T02:32:16.878Z,99387.34
2022-09-28T02:32:49.328Z,99381.16
2022-09-28T02:33:21.499Z,99383.66
2022-09-28T02:33:53.384Z,99383.53
2022-09-28T02:34:24.833Z,99381.47
2022-09-28T02:34:56.252Z,99382.50
2022-09-28T02:35:27.715Z,99380.44
2022-09-28T02:35:59.676Z,99375.03
2022-09-28T02:36:31.992Z,99390.78
2022-09-28T02:37:03.468Z,99383.88
2022-09-28T02:37:34.954Z,99384.09
2022-09-28T02:38:06.696Z,99386.38
2022-09-28T02:38:38.537Z,99385.47
2022-09-28T02:39:13.963Z,99381.22
2022-09-28T02:39:45.492Z,99378.56
2022-09-28T02:40:18.198Z,99382.72
2022-09-28T02:40:53.541Z,99380.19
2022-09-28T02:41:25.017Z,99383.19
2022-09-28T02:42:07.621Z,99386.06
2022-09-28T02:42:46.658Z,99384.22
2022-09-28T02:43:26.437Z,99385.16
2022-09-28T02:44:08.797Z,99384.22
2022-09-28T02:45:00.152Z,99385.94
2022-09-28T02:45:50.085Z,99391.47
2022-09-28T02:46:28.640Z,99386.06
2022-09-28T02:47:18.152Z,99390.31
2022-09-28T02:47:53.440Z,99385.47
2022-09-28T02:48:42.757Z,99385.03
2022-09-28T02:49:34.827Z,99389.06
2022-09-28T02:50:13.095Z,99393.53
2022-09-28T02:51:03.388Z,99394.00
2022-09-28T02:51:37.495Z,99390.78
2022-09-28T02:52:32.749Z,99383.75
2022-09-28T02:53:07.366Z,99383.63
2022-09-28T02:53:38.934Z,99387.53
2022-09-28T02:54:23.138Z,99390.78
2022-09-28T02:54:59.258Z,99389.16
2022-09-28T02:55:36.506Z,99380.66
2022-09-28T02:56:16.273Z,99390.78
2022-09-28T02:56:47.678Z,99388.25
2022-09-28T02:57:31.166Z,99383.19
2022-09-28T02:58:05.256Z,99384.22
2022-09-28T02:58:39.609Z,99383.19
2022-09-28T02:59:24.276Z,99391.47
2022-09-28T03:00:02.060Z,99389.41
2022-09-28T03:00:35.275Z,99391.34
2022-09-28T03:01:16.075Z,99390.31
2022-09-28T03:01:48.066Z,99390.31
2022-09-28T03:02:21.502Z,99394.00
2022-09-28T03:02:58.813Z,99384.44
2022-09-28T03:03:50.503Z,99396.19
2022-09-28T03:04:24.894Z,99397.22
2022-09-28T03:04:58.880Z,99397.09
2022-09-28T03:05:36.518Z,99390.78
2022-09-28T03:06:10.159Z,99394.09
2022-09-28T03:06:53.646Z,99396.75
2022-09-28T03:07:27.058Z,99405.03
2022-09-28T03:07:58.587Z,99399.91
2022-09-28T03:08:34.212Z,99397.84
2022-09-28T03:09:09.863Z,99396.84
2022-09-28T03:09:44.219Z,99401.09
2022-09-28T03:10:18.595Z,99401.31
2022-09-28T03:10:51.478Z,99398.66
2022-09-28T03:11:24.860Z,99400.66
2022-09-28T03:11:57.209Z,99398.00
2022-09-28T03:12:33.219Z,99401.09
2022-09-28T03:13:05.798Z,99402.13
2022-09-28T03:13:37.792Z,99396.00
2022-09-28T03:14:09.419Z,99403.16
2022-09-28T03:15:05.663Z,99401.47
2022-09-28T03:15:37.629Z,99400.88
2022-09-28T03:16:18.995Z,99400.31
2022-09-28T03:16:52.854Z,99393.38
2022-09-28T03:17:24.861Z,99395.38
2022-09-28T03:17:56.725Z,99402.38
2022-09-28T03:18:28.199Z,99399.63
2022-09-28T03:18:59.619Z,99400.31
2022-09-28T03:19:31.917Z,99401.81
2022-09-28T03:20:05.065Z,99401.47
2022-09-28T03:20:37.273Z,99404.91
2022-09-28T03:21:10.042Z,99401.81
2022-09-28T03:21:42.139Z,99403.06
2022-09-28T03:22:13.613Z,99401.69
2022-09-28T03:23:00.216Z,99400.66
2022-09-28T03:23:36.932Z,99401.34
2022-09-28T03:24:11.129Z,99402.16
2022-09-28T03:24:42.637Z,99404.13
2022-09-28T03:25:15.633Z,99402.75
2022-09-28T03:25:47.372Z,99402.75
2022-09-28T03:26:19.828Z,99399.03
2022-09-28T03:26:51.473Z,99403.88
2022-09-28T03:27:23.000Z,99401.00
2022-09-28T03:27:54.468Z,99399.16
2022-09-28T03:28:26.467Z,99408.38
2022-09-28T03:28:57.907Z,99405.13
2022-09-28T03:29:33.082Z,99403.88
2022-09-28T03:30:08.571Z,99404.69
2022-09-28T03:30:40.235Z,99400.66
2022-09-28T03:31:11.986Z,99408.00
2022-09-28T03:31:44.294Z,99403.88
2022-09-28T03:32:16.436Z,99395.81
2022-09-28T03:32:47.864Z,99398.47
2022-09-28T03:33:20.079Z,99403.53
2022-09-28T03:33:51.492Z,99402.13
2022-09-28T03:34:23.048Z,99399.03
2022-09-28T03:34:55.488Z,99399.03
2022-09-28T03:35:26.959Z,99402.56
2022-09-28T03:35:58.924Z,99398.06
2022-09-28T03:36:30.828Z,99396.84
2022-09-28T03:37:02.570Z,99396.63
2022-09-28T03:37:34.148Z,99401.09
2022-09-28T03:38:05.599Z,99405.78
2022-09-28T03:38:41.635Z,99400.50
2022-09-28T03:39:13.130Z,99402.72
2022-09-28T03:39:44.556Z,99403.16
2022-09-28T03:40:16.446Z,99401.53
2022-09-28T03:40:57.365Z,99406.13
2022-09-28T03:41:29.125Z,99398.31
2022-09-28T03:42:00.852Z,99414.09
2022-09-28T03:42:35.369Z,99406.41
2022-09-28T03:43:06.991Z,99403.16
2022-09-28T03:43:38.440Z,99404.19
2022-09-28T03:44:09.934Z,99402.78
2022-09-28T03:44:41.543Z,99401.41
2022-09-28T03:45:13.032Z,99406.13
2022-09-28T03:45:51.046Z,99401.63
2022-09-28T03:46:22.596Z,99399.22
2022-09-28T03:46:57.625Z,99398.19
2022-09-28T03:47:29.818Z,99399.22
2022-09-28T03:48:02.829Z,99404.50
2022-09-28T03:48:34.792Z,99405.88
2022-09-28T03:49:06.297Z,99400.81
2022-09-28T03:49:37.780Z,99399.66
2022-09-28T03:50:09.300Z,99406.13
2022-09-28T03:50:40.716Z,99401.06
2022-09-28T03:51:14.572Z,99402.88
2022-09-28T03:51:47.200Z,99410.81
2022-09-28T03:52:18.833Z,99411.84
2022-09-28T03:52:50.247Z,99409.22
2022-09-28T03:53:21.758Z,99400.25
2022-09-28T03:53:53.255Z,99405.53
2022-09-28T03:54:25.555Z,99408.75
2022-09-28T03:54:56.987Z,99399.66
2022-09-28T03:55:28.376Z,99401.28
2022-09-28T03:56:03.717Z,99401.28
2022-09-28T03:56:35.903Z,99403.69
2022-09-28T03:57:07.431Z,99404.94
2022-09-28T03:57:38.874Z,99399.66
2022-09-28T03:58:10.408Z,99401.53
2022-09-28T03:58:42.047Z,99408.00
2022-09-28T03:59:15.176Z,99405.22
2022-09-28T03:59:46.640Z,99407.50
2022-09-28T04:00:18.963Z,99404.84
2022-09-28T04:00:50.648Z,99404.06
2022-09-28T04:01:22.917Z,99404.84
2022-09-28T04:01:54.502Z,99403.00
2022-09-28T04:02:26.078Z,99408.75
2022-09-28T04:02:57.530Z,99410.94
2022-09-28T04:03:30.289Z,99399.09
2022-09-28T04:04:01.964Z,99404.56
2022-09-28T04:04:34.662Z,99406.16
2022-09-28T04:05:06.130Z,99411.69
2022-09-28T04:05:37.650Z,99405.78
2022-09-28T04:06:09.459Z,99403.94
2022-09-28T04:06:40.972Z,99398.31
2022-09-28T04:07:12.627Z,99406.41
2022-09-28T04:07:44.193Z,99407.56
2022-09-28T04:08:16.018Z,99409.63
2022-09-28T04:08:47.483Z,99401.47
2022-09-28T04:09:19.792Z,99409.63
2022-09-28T04:09:51.213Z,99403.06
2022-09-28T04:10:22.607Z,99409.16
2022-09-28T04:10:57.833Z,99400.19
2022-09-28T04:11:38.558Z,99399.84
2022-09-28T04:12:21.192Z,99402.84
2022-09-28T04:12:56.555Z,99410.78
2022-09-28T04:13:28.729Z,99402.63
2022-09-28T04:14:00.302Z,99396.53
2022-09-28T04:14:32.635Z,99403.88
2022-09-28T04:15:04.259Z,99406.53
2022-09-28T04:15:37.963Z,99404.00
2022-09-28T04:16:10.239Z,99402.16
2022-09-28T04:16:41.791Z,99405.03
2022-09-28T04:17:16.122Z,99405.03
2022-09-28T04:17:48.713Z,99402.97
2022-09-28T04:18:40.139Z,99395.59
2022-09-28T04:19:29.913Z,99405.25
2022-09-28T04:20:19.975Z,99410.91
2022-09-28T04:21:08.973Z,99405.50
2022-09-28T04:21:45.352Z,99405.94
2022-09-28T04:22:18.872Z,99407.09
2022-09-28T04:22:50.388Z,99407.09
2022-09-28T04:23:22.212Z,99401.81
2022-09-28T04:23:53.739Z,99402.25
2022-09-28T04:24:26.608Z,99402.25
2022-09-28T04:24:58.315Z,99411.00
2022-09-28T04:25:29.844Z,99407.56
2022-09-28T04:26:04.004Z,99403.88
2022-09-28T04:26:35.472Z,99403.44
2022-09-28T04:27:33.532Z,99400.56
2022-09-28T04:28:24.816Z,99409.16
2022-09-28T04:29:15.081Z,99405.72
2022-09-28T04:29:48.630Z,99402.25
2022-09-28T04:30:22.153Z,99405.94
2022-09-28T04:30:53.726Z,99408.84
2022-09-28T04:31:25.442Z,99403.44
2022-09-28T04:31:57.070Z,99405.25
2022-09-28T04:32:37.727Z,99402.25
2022-09-28T04:33:09.680Z,99411.22
2022-09-28T04:33:41.069Z,99405.94
2022-09-28T04:34:13.546Z,99408.59
2022-09-28T04:34:45.036Z,99410.44
2022-09-28T04:35:16.894Z,99403.31
2022-09-28T04:35:48.388Z,99410.44
2022-09-28T04:36:20.004Z,99413.88
2022-09-28T04:36:51.822Z,99410.06
2022-09-28T04:37:23.684Z,99406.41
2022-09-28T04:37:55.519Z,99404.34
2022-09-28T04:38:48.722Z,99410.19
2022-09-28T04:39:21.919Z,99402.25
2022-09-28T04:39:56.759Z,99410.19
2022-09-28T04:40:49.032Z,99398.59
2022-09-28T04:41:22.152Z,99408.59
2022-09-28T04:41:54.066Z,99406.28
2022-09-28T04:42:25.496Z,99401.34
2022-09-28T04:42:57.338Z,99407.69
2022-09-28T04:43:29.684Z,99404.22
2022-09-28T04:44:01.288Z,99407.69
2022-09-28T04:44:32.789Z,99400.78
2022-09-28T04:45:10.064Z,99405.50
2022-09-28T04:45:45.250Z,99407.44
2022-09-28T04:46:17.264Z,99405.84
2022-09-28T04:46:59.723Z,99399.63
2022-09-28T04:47:34.504Z,99400.19
2022-09-28T04:48:28.790Z,99397.31
2022-09-28T04:49:10.809Z,99406.75
2022-09-28T04:49:57.691Z,99398.00
2022-09-28T04:50:33.329Z,99400.19
2022-09-28T04:51:11.203Z,99408.38
2022-09-28T04:51:42.631Z,99404.91
2022-09-28T04:52:18.204Z,99403.31
2022-09-28T04:52:52.799Z,99400.66
2022-09-28T04:53:24.474Z,99403.31
2022-09-28T04:53:56.137Z,99406.59
2022-09-28T04:54:27.659Z,99414.97
2022-09-28T04:54:59.095Z,99406.00
2022-09-28T04:55:32.551Z,99399.91
2022-09-28T04:56:11.242Z,99406.75
2022-09-28T04:56:43.305Z,99401.91
2022-09-28T04:57:14.729Z,99409.63
2022-09-28T04:57:46.208Z,99403.75
2022-09-28T04:58:18.554Z,99413.88
2022-09-28T04:58:52.696Z,99405.13
2022-09-28T04:59:24.645Z,99403.16
2022-09-28T04:59:56.092Z,99401.47
2022-09-28T05:00:27.595Z,99404.34
2022-09-28T05:01:11.618Z,99401.22
2022-09-28T05:02:01.732Z,99401.69
2022-09-28T05:02:51.677Z,99408.88
2022-09-28T05:03:51.032Z,99404.19
2022-09-28T05:04:32.110Z,99411.69
2022-09-28T05:05:22.698Z,99408.44
2022-09-28T05:06:22.739Z,99404.41
2022-09-28T05:07:00.264Z,99407.63
2022-09-28T05:07:31.694Z,99404.19
2022-09-28T05:08:06.037Z,99407.28
2022-09-28T05:08:37.690Z,99408.19
2022-09-28T05:09:09.590Z,99404.50
2022-09-28T05:09:41.072Z,99402.44
2022-09-28T05:10:12.925Z,99401.63
2022-09-28T05:10:45.199Z,99404.50
2022-09-28T05:11:16.788Z,99399.66
2022-09-28T05:11:53.040Z,99402.75
2022-09-28T05:12:26.456Z,99402.19
2022-09-28T05:12:57.892Z,99407.13
2022-09-28T05:13:29.830Z,99397.91
2022-09-28T05:14:01.399Z,99398.94
2022-09-28T05:14:33.282Z,99405.72
2022-09-28T05:15:04.901Z,99401.03
2022-09-28T05:15:36.782Z,99405.50
2022-09-28T05:16:09.107Z,99395.94
2022-09-28T05:16:53.779Z,99395.44
2022-09-28T05:17:31.934Z,99400.81
2022-09-28T05:18:25.567Z,99400.31
2022-09-28T05:19:07.057Z,99395.03
2022-09-28T05:19:38.632Z,99399.28
2022-09-28T05:20:10.071Z,99405.38
2022-09-28T05:20:42.153Z,99394.44
2022-09-28T05:21:14.468Z,99396.88
2022-09-28T05:21:49.066Z,99401.81
2022-09-28T05:22:20.557Z,99401.00
2022-09-28T05:22:52.012Z,99403.84
2022-09-28T05:23:23.480Z,99402.44
2022-09-28T05:24:07.394Z,99398.63
2022-09-28T05:24:40.881Z,99406.78
2022-09-28T05:25:13.519Z,99411.03
2022-09-28T05:26:01.019Z,99408.38
2022-09-28T05:26:34.044Z,99411.47
2022-09-28T05:27:05.541Z,99419.41
2022-09-28T05:27:37.050Z,99412.50
2022-09-28T05:28:27.577Z,99406.03
2022-09-28T05:29:17.405Z,99409.66
2022-09-28T05:30:10.904Z,99404.41
2022-09-28T05:31:20.278Z,99406.47
2022-09-28T05:32:08.852Z,99405.44
2022-09-28T05:32:55.017Z,99405.66
2022-09-28T05:33:33.004Z,99404.84
2022-09-28T05:34:14.643Z,99403.59
2022-09-28T05:34:46.149Z,99406.03
2022-09-28T05:35:23.735Z,99405.03
2022-09-28T05:35:59.052Z,99412.06
2022-09-28T05:36:32.658Z,99410.81
2022-09-28T05:37:04.142Z,99403.09
2022-09-28T05:37:36.577Z,99402.31
2022-09-28T05:38:08.772Z,99404.72
2022-09-28T05:38:40.230Z,99405.16
2022-09-28T05:39:11.711Z,99408.25
2022-09-28T05:39:43.201Z,99406.84
2022-09-28T05:40:14.991Z,99402.78
2022-09-28T05:40:47.120Z,99401.19
2022-09-28T05:41:18.652Z,99404.41
2022-09-28T05:41:50.488Z,99403.59
2022-09-28T05:42:22.165Z,99408.66
2022-09-28T05:42:53.582Z,99398.72
2022-09-28T05:43:25.435Z,99404.00
2022-09-28T05:43:58.124Z,99404.59
2022-09-28T05:44:29.598Z,99410.91
2022-09-28T05:45:01.609Z,99408.84
2022-09-28T05:45:33.429Z,99411.13
2022-09-28T05:46:05.788Z,99407.44
2022-09-28T05:46:39.307Z,99406.56
2022-09-28T05:47:13.467Z,99403.84
2022-09-28T05:47:46.207Z,99412.38
2022-09-28T05:48:20.629Z,99410.31
2022-09-28T05:48:52.670Z,99403.19
2022-09-28T05:49:24.173Z,99404.56
2022-09-28T05:49:55.612Z,99406.56
2022-09-28T05:50:27.132Z,99409.56
2022-09-28T05:51:01.911Z,99402.78
2022-09-28T05:51:33.424Z,99410.72
2022-09-28T05:52:04.865Z,99406.22
2022-09-28T05:52:39.675Z,99410.84
2022-09-28T05:53:12.509Z,99412.47
2022-09-28T05:53:43.946Z,99410.44
2022-09-28T05:54:15.864Z,99405.13
2022-09-28T05:54:50.580Z,99404.09
2022-09-28T05:55:22.018Z,99409.97
2022-09-28T05:55:57.074Z,99413.66
2022-09-28T05:56:30.169Z,99411.16
2022-09-28T05:57:01.639Z,99409.09
2022-09-28T05:57:33.076Z,99416.44
2022-09-28T05:58:05.634Z,99415.97
2022-09-28T05:58:37.106Z,99415.97
2022-09-28T05:59:09.339Z,99410.25
2022-09-28T05:59:41.546Z,99417.72
2022-09-28T06:00:13.199Z,99415.66
2022-09-28T06:00:45.782Z,99420.50
2022-09-28T06:01:17.629Z,99416.81
2022-09-28T06:01:49.621Z,99415.22
2022-09-28T06:02:21.078Z,99416.81
2022-09-28T06:02:56.216Z,99416.81
2022-09-28T06:03:27.700Z,99414.63
2022-09-28T06:03:59.172Z,99413.72
2022-09-28T06:04:30.933Z,99418.44
2022-09-28T06:05:03.333Z,99423.16
2022-09-28T06:05:36.152Z,99413.81
2022-09-28T06:06:07.753Z,99417.03
2022-09-28T06:06:39.402Z,99419.47
2022-09-28T06:07:12.051Z,99409.47
2022-09-28T06:07:46.444Z,99417.41
2022-09-28T06:08:17.934Z,99412.28
2022-09-28T06:08:52.677Z,99412.84
2022-09-28T06:09:50.112Z,99406.41
2022-09-28T06:10:41.126Z,99415.38
2022-09-28T06:11:12.816Z,99422.69
2022-09-28T06:11:44.268Z,99413.59
2022-09-28T06:12:56.998Z,99415.44
2022-09-28T06:13:29.004Z,99416.25
2022-09-28T06:14:00.537Z,99415.78
2022-09-28T06:14:34.525Z,99414.03
2022-09-28T06:15:06.279Z,99413.00
2022-09-28T06:15:39.069Z,99413.81
2022-09-28T06:16:14.447Z,99421.53
2022-09-28T06:16:45.997Z,99404.41
2022-09-28T06:17:17.968Z,99412.13
2022-09-28T06:17:58.468Z,99417.41
2022-09-28T06:19:05.471Z,99414.09
2022-09-28T06:20:09.465Z,99417.22
2022-09-28T06:20:59.660Z,99425.28
2022-09-28T06:21:42.516Z,99422.19
2022-09-28T06:22:13.977Z,99419.09
2022-09-28T06:23:01.579Z,99426.97
2022-09-28T06:23:33.078Z,99427.19
2022-09-28T06:24:04.798Z,99425.13
2022-09-28T06:24:36.250Z,99434.44
2022-09-28T06:25:08.501Z,99425.94
2022-09-28T06:25:39.965Z,99428.69
2022-09-28T06:26:11.448Z,99430.06
2022-09-28T06:26:43.683Z,99440.88
2022-09-28T06:27:15.184Z,99433.31
2022-09-28T06:27:55.745Z,99433.19
2022-09-28T06:28:27.238Z,99428.59
2022-09-28T06:29:00.506Z,99420.88
2022-09-28T06:29:32.082Z,99435.94
2022-09-28T06:30:03.921Z,99435.72
2022-09-28T06:30:36.458Z,99439.63
2022-09-28T06:31:08.218Z,99432.25
2022-09-28T06:31:47.470Z,99438.00
2022-09-28T06:32:19.708Z,99439.63
2022-09-28T06:32:54.974Z,99442.84
2022-09-28T06:33:26.760Z,99442.28
2022-09-28T06:33:59.364Z,99442.41
2022-09-28T06:34:30.778Z,99434.91
2022-09-28T06:35:03.482Z,99442.41
2022-09-28T06:35:35.133Z,99438.38
2022-09-28T06:36:06.715Z,99439.53
2022-09-28T06:36:38.433Z,99437.09
2022-09-28T06:37:10.161Z,99441.94
2022-09-28T06:37:44.364Z,99446.78
2022-09-28T06:38:15.912Z,99450.91
2022-09-28T06:38:47.302Z,99450.78
2022-09-28T06:39:19.465Z,99442.84
2022-09-28T06:39:51.294Z,99452.66
2022-09-28T06:40:22.957Z,99450.91
2022-09-28T06:40:54.855Z,99450.00
2022-09-28T06:41:26.435Z,99457.81
2022-09-28T06:41:57.955Z,99451.38
2022-09-28T06:42:37.524Z,99456.22
2022-09-28T06:43:41.080Z,99461.50
2022-09-28T06:44:38.439Z,99461.16
2022-09-28T06:45:42.494Z,99464.72
2022-09-28T06:46:32.862Z,99458.75
2022-09-28T06:47:04.608Z,99463.44
2022-09-28T06:47:58.460Z,99463.00
2022-09-28T06:48:36.639Z,99462.78
2022-09-28T06:49:09.500Z,99465.88
2022-09-28T06:50:00.198Z,99465.28
2022-09-28T06:50:33.644Z,99460.34
2022-09-28T06:51:21.908Z,99467.25
2022-09-28T06:52:02.857Z,99472.09
2022-09-28T06:52:53.746Z,99461.50
2022-09-28T06:53:45.505Z,99473.25
2022-09-28T06:54:36.009Z,99466.22
2022-09-28T06:55:18.916Z,99470.94
2022-09-28T06:55:57.906Z,99458.28
2022-09-28T06:56:32.700Z,99469.69
2022-09-28T06:57:04.578Z,99468.53
2022-09-28T06:57:36.063Z,99462.41
2022-09-28T06:58:09.824Z,99468.41